createdAt,value
2022-10-31T00:03:51.668Z,7.65
2022-10-31T00:09:00.087Z,7.50
2022-10-31T00:14:07.994Z,7.89
2022-10-31T00:19:13.976Z,7.75
2022-10-31T00:24:19.975Z,7.85
2022-10-31T00:29:28.400Z,7.63
2022-10-31T00:34:34.310Z,7.38
2022-10-31T00:39:40.660Z,7.09
2022-10-31T00:44:48.088Z,7.29
2022-10-31T00:49:54.070Z,7.37
2022-10-31T00:55:00.106Z,7.47
2022-10-31T01:00:09.792Z,7.41
2022-10-31T01:05:16.178Z,6.99
2022-10-31T01:10:24.310Z,6.96
2022-10-31T01:15:32.796Z,6.93
2022-10-31T01:20:38.822Z,7.11
2022-10-31T01:25:44.826Z,7.27
2022-10-31T01:30:55.066Z,7.22
2022-10-31T01:36:02.956Z,7.24
2022-10-31T01:41:09.120Z,7.03
2022-10-31T01:46:19.608Z,6.89
2022-10-31T01:51:32.180Z,6.84
2022-10-31T01:56:44.065Z,6.79
2022-10-31T02:01:56.362Z,6.71
2022-10-31T02:07:07.542Z,6.82
2022-10-31T02:12:14.589Z,6.76
2022-10-31T02:17:23.080Z,6.59
2022-10-31T02:22:40.868Z,6.74
2022-10-31T02:28:14.394Z,6.85
2022-10-31T02:33:32.410Z,6.66
2022-10-31T02:38:53.186Z,6.66
2022-10-31T02:44:18.349Z,6.74
2022-10-31T02:49:32.313Z,6.89
2022-10-31T02:54:39.255Z,6.88
2022-10-31T02:59:53.417Z,6.84
2022-10-31T03:05:25.401Z,6.22
2022-10-31T03:10:43.877Z,6.63
2022-10-31T03:15:54.272Z,6.35
2022-10-31T03:21:09.048Z,6.60
2022-10-31T03:26:16.532Z,6.29
2022-10-31T03:31:27.392Z,6.28
2022-10-31T03:36:39.146Z,6.08
2022-10-31T03:41:52.422Z,6.45
2022-10-31T03:46:59.155Z,6.23
2022-10-31T03:52:19.733Z,6.45
2022-10-31T03:57:32.029Z,6.43
2022-10-31T04:02:43.937Z,6.57
2022-10-31T04:07:59.268Z,6.66
2022-10-31T04:13:11.304Z,6.80
2022-10-31T04:18:27.014Z,6.96
2022-10-31T04:23:35.941Z,6.96
2022-10-31T04:28:49.423Z,7.05
2022-10-31T04:33:55.647Z,7.23
2022-10-31T04:39:04.251Z,7.26
2022-10-31T04:44:18.313Z,7.21
2022-10-31T04:49:28.638Z,7.04
2022-10-31T04:54:37.095Z,6.92
2022-10-31T05:00:24.129Z,6.92
2022-10-31T05:05:33.364Z,6.99
2022-10-31T05:10:44.167Z,6.95
2022-10-31T05:15:50.341Z,6.95
2022-10-31T05:21:14.980Z,6.98
2022-10-31T05:26:26.021Z,6.89
2022-10-31T05:31:33.552Z,6.90
2022-10-31T05:36:40.829Z,6.99
2022-10-31T05:41:58.630Z,6.82
2022-10-31T05:47:06.483Z,6.78
2022-10-31T05:52:57.666Z,6.67
2022-10-31T05:58:11.270Z,6.70
2022-10-31T06:03:19.311Z,6.78
2022-10-31T06:08:32.132Z,6.87
2022-10-31T06:13:43.957Z,7.00
2022-10-31T06:18:57.444Z,7.03
2022-10-31T06:24:03.446Z,6.96
2022-10-31T06:29:33.326Z,7.03
2022-10-31T06:34:44.401Z,7.13
2022-10-31T06:39:50.696Z,7.15
2022-10-31T06:44:58.671Z,7.18
2022-10-31T06:50:24.453Z,7.29
2022-10-31T06:55:32.665Z,7.37
2022-10-31T07:00:40.478Z,7.42
2022-10-31T07:05:47.060Z,7.56
2022-10-31T07:10:57.318Z,7.60
2022-10-31T07:16:07.898Z,7.62
2022-10-31T07:21:15.672Z,7.67
2022-10-31T07:26:22.052Z,7.72
2022-10-31T07:31:29.930Z,7.77
2022-10-31T07:36:42.456Z,7.84
2022-10-31T07:41:50.069Z,7.95
2022-10-31T07:47:00.710Z,8.09
2022-10-31T07:52:26.747Z,8.31
2022-10-31T07:58:00.529Z,8.38
2022-10-31T08:03:11.403Z,8.49
2022-10-31T08:08:46.637Z,8.53
2022-10-31T08:13:53.117Z,8.68
2022-10-31T08:19:00.775Z,8.86
2022-10-31T08:24:09.441Z,8.95
2022-10-31T08:29:16.080Z,9.04
2022-10-31T08:34:28.148Z,9.14
2022-10-31T08:39:52.769Z,9.35
2022-10-31T08:45:00.717Z,9.44
2022-10-31T08:50:12.103Z,9.63
2022-10-31T08:55:18.807Z,9.87
2022-10-31T09:00:48.403Z,9.99
2022-10-31T09:06:01.628Z,10.05
2022-10-31T09:11:08.929Z,10.11
2022-10-31T09:16:33.445Z,10.08
2022-10-31T09:21:41.122Z,10.24
2022-10-31T09:26:49.037Z,10.37
2022-10-31T09:31:59.813Z,10.57
2022-10-31T09:37:10.840Z,10.58
2022-10-31T09:42:57.435Z,10.84
2022-10-31T09:48:26.736Z,10.97
2022-10-31T09:53:44.131Z,11.11
2022-10-31T09:58:57.261Z,11.18
2022-10-31T10:04:19.825Z,11.33
2022-10-31T10:09:40.373Z,11.63
2022-10-31T10:15:56.910Z,11.78
2022-10-31T10:21:21.600Z,11.98
2022-10-31T10:26:38.778Z,11.97
2022-10-31T10:31:48.383Z,12.16
2022-10-31T10:37:01.492Z,12.11
2022-10-31T10:42:32.809Z,12.09
2022-10-31T10:47:45.194Z,12.21
2022-10-31T10:53:00.647Z,12.34
2022-10-31T10:58:11.132Z,12.25
2022-10-31T11:03:19.639Z,12.14
2022-10-31T11:08:31.081Z,11.98
2022-10-31T11:13:39.534Z,11.96
2022-10-31T11:18:48.941Z,11.88
2022-10-31T11:24:06.721Z,11.89
2022-10-31T11:29:22.377Z,11.90
2022-10-31T11:34:34.638Z,11.85
2022-10-31T11:39:46.066Z,11.89
2022-10-31T11:44:56.073Z,11.92
2022-10-31T11:50:12.218Z,11.95
2022-10-31T11:55:32.550Z,11.85
2022-10-31T12:00:50.744Z,12.07
2022-10-31T12:06:02.664Z,12.15
2022-10-31T12:11:29.150Z,12.22
2022-10-31T12:16:43.136Z,12.32
2022-10-31T12:22:16.486Z,12.30
2022-10-31T12:27:39.439Z,12.43
2022-10-31T12:33:14.464Z,12.42
2022-10-31T12:38:52.974Z,12.46
2022-10-31T12:44:08.133Z,12.56
2022-10-31T12:49:48.024Z,12.67
2022-10-31T12:55:14.696Z,12.62
2022-10-31T13:00:26.534Z,12.58
2022-10-31T13:05:41.646Z,12.65
2022-10-31T13:10:53.746Z,12.60
2022-10-31T13:16:04.017Z,12.69
2022-10-31T13:21:20.504Z,12.64
2022-10-31T13:26:43.358Z,12.69
2022-10-31T13:31:49.665Z,12.72
2022-10-31T13:37:08.085Z,12.81
2022-10-31T13:42:21.641Z,12.80
2022-10-31T13:47:30.293Z,12.79
2022-10-31T13:52:38.530Z,12.79
2022-10-31T13:57:46.926Z,12.76
2022-10-31T14:02:57.155Z,12.73
2022-10-31T14:08:08.658Z,12.79
2022-10-31T14:13:23.401Z,12.84
2022-10-31T14:18:36.105Z,12.82
2022-10-31T14:23:47.431Z,12.83
2022-10-31T14:28:58.721Z,12.81
2022-10-31T14:34:24.815Z,12.80
2022-10-31T14:39:40.254Z,12.74
2022-10-31T14:45:20.971Z,12.74
2022-10-31T14:50:43.814Z,12.76
2022-10-31T14:55:55.409Z,12.74
2022-10-31T15:01:01.875Z,12.72
2022-10-31T15:06:15.549Z,12.71
2022-10-31T15:11:25.908Z,12.66
2022-10-31T15:16:36.950Z,12.67
2022-10-31T15:21:47.742Z,12.62
2022-10-31T15:27:02.323Z,12.59
2022-10-31T15:32:24.216Z,12.60
2022-10-31T15:37:30.783Z,12.61
2022-10-31T15:42:43.242Z,12.63
2022-10-31T15:47:58.276Z,12.60
2022-10-31T15:53:06.006Z,12.54
2022-10-31T15:58:17.970Z,12.55
2022-10-31T16:03:29.524Z,12.57
2022-10-31T16:08:38.898Z,12.55
2022-10-31T16:14:00.104Z,12.57
2022-10-31T16:19:15.315Z,12.53
2022-10-31T16:24:26.247Z,12.52
2022-10-31T16:29:40.577Z,12.50
2022-10-31T16:34:47.440Z,12.51
2022-10-31T16:40:03.340Z,12.50
2022-10-31T16:45:19.759Z,12.50
2022-10-31T16:50:29.813Z,12.46
2022-10-31T16:55:49.051Z,12.47
2022-10-31T17:01:02.382Z,12.43
2022-10-31T17:06:15.115Z,12.39
2022-10-31T17:11:25.337Z,12.39
2022-10-31T17:16:33.070Z,12.41
2022-10-31T17:21:39.607Z,12.40
2022-10-31T17:26:48.698Z,12.35
2022-10-31T18:02:11.021Z,12.29
2022-10-31T18:08:59.772Z,12.26
2022-10-31T18:21:00.120Z,12.21
2022-10-31T18:33:42.741Z,12.17
2022-10-31T18:39:15.916Z,12.12
2022-10-31T18:54:18.110Z,12.07
2022-10-31T18:59:26.421Z,12.05
2022-10-31T19:05:22.092Z,12.04
2022-10-31T19:26:44.957Z,11.95
2022-10-31T19:41:03.437Z,11.91
2022-10-31T19:54:29.521Z,11.86
2022-10-31T20:00:52.003Z,11.84
2022-10-31T20:14:04.608Z,11.80
2022-10-31T20:19:35.763Z,11.80
2022-10-31T20:24:43.444Z,11.78
2022-10-31T20:31:29.513Z,11.75
2022-10-31T20:44:14.035Z,11.69
2022-10-31T20:50:37.297Z,11.73
2022-10-31T20:56:32.971Z,11.72
2022-10-31T21:10:15.285Z,11.69
2022-10-31T21:24:13.735Z,11.64
2022-10-31T21:29:46.071Z,11.64
2022-10-31T21:36:31.991Z,11.63
2022-10-31T21:50:44.458Z,11.60
2022-10-31T21:55:50.827Z,11.61
2022-10-31T22:01:02.159Z,11.57
2022-10-31T22:06:12.120Z,11.60
2022-10-31T22:19:07.165Z,11.58
2022-10-31T22:24:19.796Z,11.59
2022-10-31T22:29:31.136Z,11.58
2022-10-31T22:34:41.560Z,11.56
2022-10-31T22:39:49.022Z,11.56
2022-10-31T22:44:55.172Z,11.56
2022-10-31T22:50:03.674Z,11.56
2022-10-31T22:55:12.118Z,11.56
2022-10-31T23:00:19.549Z,11.56
2022-10-31T23:05:25.865Z,11.55
2022-10-31T23:10:36.136Z,11.55
2022-10-31T23:15:43.474Z,11.55
2022-10-31T23:21:01.668Z,11.56
2022-10-31T23:26:27.680Z,11.54
2022-10-31T23:31:33.713Z,11.53
2022-10-31T23:36:40.158Z,11.53
2022-10-31T23:41:47.619Z,11.53
2022-10-31T23:46:53.599Z,11.51
2022-10-31T23:52:01.572Z,11.50
2022-10-31T23:57:09.573Z,11.50
